sensor_id;sensor_type;location;lat;lon;timestamp;temperature;humidity
80701;DHT22;71609;42.630;23.380;2023-07-29T00:01:51;28.90;45.30
80701;DHT22;71609;42.630;23.380;2023-07-29T00:04:19;28.90;45.20
80701;DHT22;71609;42.630;23.380;2023-07-29T00:06:45;28.90;45.30
80701;DHT22;71609;42.630;23.380;2023-07-29T00:09:11;28.90;45.30
80701;DHT22;71609;42.630;23.380;2023-07-29T00:11:38;28.90;45.30
80701;DHT22;71609;42.630;23.380;2023-07-29T00:14:04;28.90;45.30
80701;DHT22;71609;42.630;23.380;2023-07-29T00:16:29;28.90;45.30
80701;DHT22;71609;42.630;23.380;2023-07-29T00:18:55;28.90;45.40
80701;DHT22;71609;42.630;23.380;2023-07-29T00:21:21;28.90;45.30
80701;DHT22;71609;42.630;23.380;2023-07-29T00:23:46;28.90;45.30
80701;DHT22;71609;42.630;23.380;2023-07-29T00:26:12;28.90;45.30
80701;DHT22;71609;42.630;23.380;2023-07-29T00:28:37;28.90;45.30
80701;DHT22;71609;42.630;23.380;2023-07-29T00:31:03;28.90;45.20
80701;DHT22;71609;42.630;23.380;2023-07-29T00:33:29;28.80;45.30
80701;DHT22;71609;42.630;23.380;2023-07-29T00:35:54;28.80;45.30
80701;DHT22;71609;42.630;23.380;2023-07-29T00:38:20;28.80;45.20
80701;DHT22;71609;42.630;23.380;2023-07-29T00:40:46;28.80;45.30
80701;DHT22;71609;42.630;23.380;2023-07-29T00:43:12;28.80;45.20
80701;DHT22;71609;42.630;23.380;2023-07-29T00:45:38;28.80;45.30
80701;DHT22;71609;42.630;23.380;2023-07-29T00:48:04;28.80;45.30
80701;DHT22;71609;42.630;23.380;2023-07-29T00:50:31;28.80;45.20
80701;DHT22;71609;42.630;23.380;2023-07-29T00:52:57;28.80;45.30
80701;DHT22;71609;42.630;23.380;2023-07-29T00:55:23;28.80;45.20
80701;DHT22;71609;42.630;23.380;2023-07-29T00:57:51;28.80;46.40
80701;DHT22;71609;42.630;23.380;2023-07-29T01:00:20;28.80;45.30
80701;DHT22;71609;42.630;23.380;2023-07-29T01:02:46;28.80;45.30
80701;DHT22;71609;42.630;23.380;2023-07-29T01:05:14;28.80;45.30
80701;DHT22;71609;42.630;23.380;2023-07-29T01:08:07;28.80;45.30
80701;DHT22;71609;42.630;23.380;2023-07-29T01:16:16;28.80;45.30
80701;DHT22;71609;42.630;23.380;2023-07-29T01:18:46;28.70;45.20
80701;DHT22;71609;42.630;23.380;2023-07-29T01:21:13;28.80;45.30
80701;DHT22;71609;42.630;23.380;2023-07-29T01:23:39;28.70;45.40
80701;DHT22;71609;42.630;23.380;2023-07-29T01:26:05;28.80;45.40
80701;DHT22;71609;42.630;23.380;2023-07-29T01:28:31;28.80;45.40
80701;DHT22;71609;42.630;23.380;2023-07-29T01:31:03;28.70;45.30
80701;DHT22;71609;42.630;23.380;2023-07-29T01:33:39;28.70;45.30
80701;DHT22;71609;42.630;23.380;2023-07-29T01:36:15;28.70;45.30
80701;DHT22;71609;42.630;23.380;2023-07-29T01:38:43;28.80;45.50
80701;DHT22;71609;42.630;23.380;2023-07-29T01:41:10;28.70;45.30
80701;DHT22;71609;42.630;23.380;2023-07-29T01:43:37;28.70;45.30
80701;DHT22;71609;42.630;23.380;2023-07-29T01:46:13;28.70;45.30
80701;DHT22;71609;42.630;23.380;2023-07-29T01:48:39;28.70;45.40
80701;DHT22;71609;42.630;23.380;2023-07-29T01:51:05;28.70;45.40
80701;DHT22;71609;42.630;23.380;2023-07-29T01:53:31;28.70;45.40
80701;DHT22;71609;42.630;23.380;2023-07-29T01:55:57;28.70;45.40
80701;DHT22;71609;42.630;23.380;2023-07-29T01:58:23;28.70;45.50
80701;DHT22;71609;42.630;23.380;2023-07-29T02:00:49;28.70;45.40
80701;DHT22;71609;42.630;23.380;2023-07-29T02:03:15;28.70;45.40
80701;DHT22;71609;42.630;23.380;2023-07-29T02:05:40;28.70;45.40
80701;DHT22;71609;42.630;23.380;2023-07-29T02:08:09;28.70;45.40
80701;DHT22;71609;42.630;23.380;2023-07-29T02:10:35;28.70;45.30
80701;DHT22;71609;42.630;23.380;2023-07-29T02:13:01;28.70;45.30
80701;DHT22;71609;42.630;23.380;2023-07-29T02:15:26;28.60;45.30
80701;DHT22;71609;42.630;23.380;2023-07-29T02:17:53;28.70;45.40
80701;DHT22;71609;42.630;23.380;2023-07-29T02:20:19;28.60;45.40
80701;DHT22;71609;42.630;23.380;2023-07-29T02:22:45;28.70;45.30
80701;DHT22;71609;42.630;23.380;2023-07-29T02:25:10;28.70;45.30
80701;DHT22;71609;42.630;23.380;2023-07-29T02:27:36;28.70;45.30
80701;DHT22;71609;42.630;23.380;2023-07-29T02:30:02;28.70;45.40
80701;DHT22;71609;42.630;23.380;2023-07-29T02:32:28;28.70;45.40
80701;DHT22;71609;42.630;23.380;2023-07-29T02:34:54;28.70;45.40
80701;DHT22;71609;42.630;23.380;2023-07-29T02:37:20;28.60;45.40
80701;DHT22;71609;42.630;23.380;2023-07-29T02:39:46;28.60;45.30
80701;DHT22;71609;42.630;23.380;2023-07-29T02:42:11;28.60;45.30
80701;DHT22;71609;42.630;23.380;2023-07-29T02:44:37;28.60;45.30
80701;DHT22;71609;42.630;23.380;2023-07-29T02:47:03;28.60;45.30
80701;DHT22;71609;42.630;23.380;2023-07-29T02:49:29;28.60;45.50
80701;DHT22;71609;42.630;23.380;2023-07-29T02:51:54;28.60;45.30
80701;DHT22;71609;42.630;23.380;2023-07-29T02:54:20;28.60;45.30
80701;DHT22;71609;42.630;23.380;2023-07-29T02:56:46;28.60;45.40
80701;DHT22;71609;42.630;23.380;2023-07-29T02:59:11;28.60;45.30
80701;DHT22;71609;42.630;23.380;2023-07-29T03:01:37;28.60;45.30
80701;DHT22;71609;42.630;23.380;2023-07-29T03:04:03;28.60;45.40
80701;DHT22;71609;42.630;23.380;2023-07-29T03:06:28;28.60;45.40
80701;DHT22;71609;42.630;23.380;2023-07-29T03:08:54;28.60;45.50
80701;DHT22;71609;42.630;23.380;2023-07-29T03:11:20;28.60;45.50
80701;DHT22;71609;42.630;23.380;2023-07-29T03:13:46;28.60;45.50
80701;DHT22;71609;42.630;23.380;2023-07-29T03:16:16;28.50;45.40
80701;DHT22;71609;42.630;23.380;2023-07-29T03:18:43;28.60;45.50
80701;DHT22;71609;42.630;23.380;2023-07-29T03:21:09;28.60;45.50
80701;DHT22;71609;42.630;23.380;2023-07-29T03:23:36;28.60;45.50
80701;DHT22;71609;42.630;23.380;2023-07-29T03:26:03;28.60;45.50
80701;DHT22;71609;42.630;23.380;2023-07-29T03:28:36;28.60;45.50
80701;DHT22;71609;42.630;23.380;2023-07-29T03:31:02;28.50;45.30
80701;DHT22;71609;42.630;23.380;2023-07-29T03:33:28;28.60;45.50
80701;DHT22;71609;42.630;23.380;2023-07-29T03:35:54;28.50;45.40
80701;DHT22;71609;42.630;23.380;2023-07-29T03:38:20;28.50;45.40
80701;DHT22;71609;42.630;23.380;2023-07-29T03:40:45;28.50;45.40
80701;DHT22;71609;42.630;23.380;2023-07-29T03:43:11;28.50;45.40
80701;DHT22;71609;42.630;23.380;2023-07-29T03:45:37;28.50;45.30
80701;DHT22;71609;42.630;23.380;2023-07-29T03:48:04;28.50;45.40
80701;DHT22;71609;42.630;23.380;2023-07-29T03:50:30;28.50;45.30
80701;DHT22;71609;42.630;23.380;2023-07-29T03:52:56;28.50;45.40
80701;DHT22;71609;42.630;23.380;2023-07-29T03:55:22;28.50;45.30
80701;DHT22;71609;42.630;23.380;2023-07-29T03:57:48;28.50;45.30
80701;DHT22;71609;42.630;23.380;2023-07-29T04:00:14;28.50;45.30
80701;DHT22;71609;42.630;23.380;2023-07-29T04:02:40;28.50;45.30
80701;DHT22;71609;42.630;23.380;2023-07-29T04:05:06;28.50;45.30
80701;DHT22;71609;42.630;23.380;2023-07-29T04:07:36;28.50;45.40
80701;DHT22;71609;42.630;23.380;2023-07-29T04:10:03;28.50;45.30
80701;DHT22;71609;42.630;23.380;2023-07-29T04:12:29;28.50;45.30
80701;DHT22;71609;42.630;23.380;2023-07-29T04:14:54;28.50;45.30
80701;DHT22;71609;42.630;23.380;2023-07-29T04:17:20;28.50;45.30
80701;DHT22;71609;42.630;23.380;2023-07-29T04:19:46;28.50;45.30
80701;DHT22;71609;42.630;23.380;2023-07-29T04:22:11;28.50;45.30
80701;DHT22;71609;42.630;23.380;2023-07-29T04:24:37;28.50;45.30
80701;DHT22;71609;42.630;23.380;2023-07-29T04:27:03;28.50;45.20
80701;DHT22;71609;42.630;23.380;2023-07-29T04:29:29;28.50;45.20
80701;DHT22;71609;42.630;23.380;2023-07-29T04:31:55;28.50;45.20
80701;DHT22;71609;42.630;23.380;2023-07-29T04:34:21;28.60;45.20
80701;DHT22;71609;42.630;23.380;2023-07-29T04:36:47;28.50;45.10
80701;DHT22;71609;42.630;23.380;2023-07-29T04:39:13;28.60;45.30
80701;DHT22;71609;42.630;23.380;2023-07-29T04:41:39;28.60;45.20
80701;DHT22;71609;42.630;23.380;2023-07-29T04:44:04;28.60;45.20
80701;DHT22;71609;42.630;23.380;2023-07-29T04:46:30;28.60;45.10
80701;DHT22;71609;42.630;23.380;2023-07-29T04:48:56;28.60;45.10
80701;DHT22;71609;42.630;23.380;2023-07-29T04:51:23;28.60;44.90
80701;DHT22;71609;42.630;23.380;2023-07-29T04:53:49;28.70;45.00
80701;DHT22;71609;42.630;23.380;2023-07-29T04:56:15;28.70;44.90
80701;DHT22;71609;42.630;23.380;2023-07-29T04:58:40;28.70;44.90
80701;DHT22;71609;42.630;23.380;2023-07-29T05:01:06;28.70;44.90
80701;DHT22;71609;42.630;23.380;2023-07-29T05:03:32;28.80;44.90
80701;DHT22;71609;42.630;23.380;2023-07-29T05:05:58;28.80;45.00
80701;DHT22;71609;42.630;23.380;2023-07-29T05:08:25;28.80;44.80
80701;DHT22;71609;42.630;23.380;2023-07-29T05:10:52;28.80;44.80
80701;DHT22;71609;42.630;23.380;2023-07-29T05:13:18;28.90;44.80
80701;DHT22;71609;42.630;23.380;2023-07-29T05:15:44;28.90;44.70
80701;DHT22;71609;42.630;23.380;2023-07-29T05:18:11;28.90;44.70
80701;DHT22;71609;42.630;23.380;2023-07-29T05:20:36;29.00;44.70
80701;DHT22;71609;42.630;23.380;2023-07-29T05:23:02;29.00;44.70
80701;DHT22;71609;42.630;23.380;2023-07-29T05:25:28;29.00;44.70
80701;DHT22;71609;42.630;23.380;2023-07-29T05:27:54;29.10;44.70
80701;DHT22;71609;42.630;23.380;2023-07-29T05:30:20;29.10;44.60
80701;DHT22;71609;42.630;23.380;2023-07-29T05:32:46;29.10;44.30
80701;DHT22;71609;42.630;23.380;2023-07-29T05:35:11;29.20;45.10
80701;DHT22;71609;42.630;23.380;2023-07-29T05:37:40;29.20;44.00
80701;DHT22;71609;42.630;23.380;2023-07-29T05:40:07;29.20;43.90
80701;DHT22;71609;42.630;23.380;2023-07-29T05:42:34;29.30;43.80
80701;DHT22;71609;42.630;23.380;2023-07-29T05:45:00;29.30;43.80
80701;DHT22;71609;42.630;23.380;2023-07-29T05:47:26;29.40;43.70
80701;DHT22;71609;42.630;23.380;2023-07-29T05:49:52;29.40;43.60
80701;DHT22;71609;42.630;23.380;2023-07-29T05:52:18;29.50;43.60
80701;DHT22;71609;42.630;23.380;2023-07-29T05:54:44;29.50;43.60
80701;DHT22;71609;42.630;23.380;2023-07-29T05:57:10;29.60;43.50
80701;DHT22;71609;42.630;23.380;2023-07-29T05:59:36;29.60;43.30
80701;DHT22;71609;42.630;23.380;2023-07-29T06:02:02;29.70;43.20
80701;DHT22;71609;42.630;23.380;2023-07-29T06:04:27;29.70;43.00
80701;DHT22;71609;42.630;23.380;2023-07-29T06:06:53;29.80;43.10
80701;DHT22;71609;42.630;23.380;2023-07-29T06:09:21;29.90;42.70
80701;DHT22;71609;42.630;23.380;2023-07-29T06:11:47;29.90;42.70
80701;DHT22;71609;42.630;23.380;2023-07-29T06:14:12;29.90;42.50
80701;DHT22;71609;42.630;23.380;2023-07-29T06:16:38;30.00;42.20
80701;DHT22;71609;42.630;23.380;2023-07-29T06:19:04;30.10;42.20
80701;DHT22;71609;42.630;23.380;2023-07-29T06:21:30;30.10;41.90
80701;DHT22;71609;42.630;23.380;2023-07-29T06:23:56;30.20;42.00
80701;DHT22;71609;42.630;23.380;2023-07-29T06:26:22;30.30;42.00
80701;DHT22;71609;42.630;23.380;2023-07-29T06:28:47;30.30;41.90
80701;DHT22;71609;42.630;23.380;2023-07-29T06:31:13;30.40;41.70
80701;DHT22;71609;42.630;23.380;2023-07-29T06:33:39;30.40;41.50
80701;DHT22;71609;42.630;23.380;2023-07-29T06:36:05;30.40;41.50
80701;DHT22;71609;42.630;23.380;2023-07-29T06:38:31;30.50;42.50
80701;DHT22;71609;42.630;23.380;2023-07-29T06:40:56;30.60;41.30
80701;DHT22;71609;42.630;23.380;2023-07-29T06:43:22;30.60;40.90
80701;DHT22;71609;42.630;23.380;2023-07-29T06:45:48;30.70;41.00
80701;DHT22;71609;42.630;23.380;2023-07-29T06:48:13;30.70;40.90
80701;DHT22;71609;42.630;23.380;2023-07-29T06:50:39;30.80;40.80
80701;DHT22;71609;42.630;23.380;2023-07-29T06:53:05;30.80;40.60
80701;DHT22;71609;42.630;23.380;2023-07-29T06:55:31;30.90;40.60
80701;DHT22;71609;42.630;23.380;2023-07-29T06:57:57;30.90;40.20
80701;DHT22;71609;42.630;23.380;2023-07-29T07:00:23;30.90;40.00
80701;DHT22;71609;42.630;23.380;2023-07-29T07:02:48;31.00;39.80
80701;DHT22;71609;42.630;23.380;2023-07-29T07:05:14;31.10;39.90
80701;DHT22;71609;42.630;23.380;2023-07-29T07:07:39;31.10;39.70
80701;DHT22;71609;42.630;23.380;2023-07-29T07:10:05;31.20;39.80
80701;DHT22;71609;42.630;23.380;2023-07-29T07:12:31;31.20;39.70
80701;DHT22;71609;42.630;23.380;2023-07-29T07:14:57;31.30;39.50
80701;DHT22;71609;42.630;23.380;2023-07-29T07:17:23;31.30;39.50
80701;DHT22;71609;42.630;23.380;2023-07-29T07:19:48;31.40;39.70
80701;DHT22;71609;42.630;23.380;2023-07-29T07:22:16;31.40;39.60
80701;DHT22;71609;42.630;23.380;2023-07-29T07:24:41;31.40;39.50
80701;DHT22;71609;42.630;23.380;2023-07-29T07:27:07;31.50;39.20
80701;DHT22;71609;42.630;23.380;2023-07-29T07:29:33;31.50;39.10
80701;DHT22;71609;42.630;23.380;2023-07-29T07:31:59;31.60;39.30
80701;DHT22;71609;42.630;23.380;2023-07-29T07:34:24;31.60;38.90
80701;DHT22;71609;42.630;23.380;2023-07-29T07:36:50;31.70;38.60
80701;DHT22;71609;42.630;23.380;2023-07-29T07:39:16;31.70;38.90
80701;DHT22;71609;42.630;23.380;2023-07-29T07:41:42;31.70;38.80
80701;DHT22;71609;42.630;23.380;2023-07-29T07:44:08;31.80;38.60
80701;DHT22;71609;42.630;23.380;2023-07-29T07:46:34;31.80;38.50
80701;DHT22;71609;42.630;23.380;2023-07-29T07:49:00;31.90;38.50
80701;DHT22;71609;42.630;23.380;2023-07-29T07:51:25;31.90;38.60
80701;DHT22;71609;42.630;23.380;2023-07-29T07:53:51;31.90;38.60
80701;DHT22;71609;42.630;23.380;2023-07-29T07:56:17;32.00;38.40
80701;DHT22;71609;42.630;23.380;2023-07-29T07:58:42;32.00;38.20
80701;DHT22;71609;42.630;23.380;2023-07-29T08:01:09;32.00;38.10
80701;DHT22;71609;42.630;23.380;2023-07-29T08:03:35;32.00;38.00
80701;DHT22;71609;42.630;23.380;2023-07-29T08:06:01;32.10;38.10
80701;DHT22;71609;42.630;23.380;2023-07-29T08:08:27;32.10;38.00
80701;DHT22;71609;42.630;23.380;2023-07-29T08:10:54;32.20;38.40
80701;DHT22;71609;42.630;23.380;2023-07-29T08:13:22;32.20;37.80
80701;DHT22;71609;42.630;23.380;2023-07-29T08:15:49;32.20;38.00
80701;DHT22;71609;42.630;23.380;2023-07-29T08:18:15;32.30;38.00
80701;DHT22;71609;42.630;23.380;2023-07-29T08:20:42;32.30;38.00
80701;DHT22;71609;42.630;23.380;2023-07-29T08:23:16;32.30;37.80
80701;DHT22;71609;42.630;23.380;2023-07-29T08:25:42;32.40;37.60
80701;DHT22;71609;42.630;23.380;2023-07-29T08:28:07;32.40;37.60
80701;DHT22;71609;42.630;23.380;2023-07-29T08:30:33;32.40;37.50
80701;DHT22;71609;42.630;23.380;2023-07-29T08:32:59;32.50;38.50
80701;DHT22;71609;42.630;23.380;2023-07-29T08:35:24;32.50;37.50
80701;DHT22;71609;42.630;23.380;2023-07-29T08:37:50;32.50;37.40
80701;DHT22;71609;42.630;23.380;2023-07-29T08:40:15;32.50;37.40
80701;DHT22;71609;42.630;23.380;2023-07-29T08:42:42;32.60;37.30
80701;DHT22;71609;42.630;23.380;2023-07-29T08:45:10;32.60;37.40
80701;DHT22;71609;42.630;23.380;2023-07-29T08:47:37;32.60;37.20
80701;DHT22;71609;42.630;23.380;2023-07-29T08:50:03;32.60;37.00
80701;DHT22;71609;42.630;23.380;2023-07-29T08:52:29;32.60;36.80
80701;DHT22;71609;42.630;23.380;2023-07-29T08:54:55;32.60;37.30
80701;DHT22;71609;42.630;23.380;2023-07-29T08:57:22;32.70;37.30
80701;DHT22;71609;42.630;23.380;2023-07-29T08:59:48;32.70;37.00
80701;DHT22;71609;42.630;23.380;2023-07-29T09:02:14;32.70;36.80
80701;DHT22;71609;42.630;23.380;2023-07-29T09:04:40;32.70;36.80
80701;DHT22;71609;42.630;23.380;2023-07-29T09:07:05;32.70;36.90
80701;DHT22;71609;42.630;23.380;2023-07-29T09:09:32;32.70;36.90
80701;DHT22;71609;42.630;23.380;2023-07-29T09:11:58;32.80;37.30
80701;DHT22;71609;42.630;23.380;2023-07-29T09:14:24;32.80;37.30
80701;DHT22;71609;42.630;23.380;2023-07-29T09:16:50;32.80;36.90
80701;DHT22;71609;42.630;23.380;2023-07-29T09:19:16;32.80;36.90
80701;DHT22;71609;42.630;23.380;2023-07-29T09:21:42;32.80;36.90
80701;DHT22;71609;42.630;23.380;2023-07-29T09:24:08;32.90;36.80
80701;DHT22;71609;42.630;23.380;2023-07-29T09:26:35;32.90;37.20
80701;DHT22;71609;42.630;23.380;2023-07-29T09:29:01;32.90;37.20
80701;DHT22;71609;42.630;23.380;2023-07-29T09:31:28;32.90;37.20
80701;DHT22;71609;42.630;23.380;2023-07-29T09:34:03;32.90;37.20
80701;DHT22;71609;42.630;23.380;2023-07-29T09:36:31;32.90;37.00
80701;DHT22;71609;42.630;23.380;2023-07-29T09:38:57;32.90;36.90
80701;DHT22;71609;42.630;23.380;2023-07-29T09:41:24;32.90;37.00
80701;DHT22;71609;42.630;23.380;2023-07-29T09:44:01;32.90;37.00
80701;DHT22;71609;42.630;23.380;2023-07-29T09:46:37;33.00;37.00
80701;DHT22;71609;42.630;23.380;2023-07-29T09:49:07;33.00;36.90
80701;DHT22;71609;42.630;23.380;2023-07-29T09:51:39;33.00;37.10
80701;DHT22;71609;42.630;23.380;2023-07-29T09:54:05;33.00;37.20
80701;DHT22;71609;42.630;23.380;2023-07-29T09:56:31;33.00;37.10
80701;DHT22;71609;42.630;23.380;2023-07-29T09:58:57;33.00;37.20
80701;DHT22;71609;42.630;23.380;2023-07-29T10:01:23;33.00;37.30
80701;DHT22;71609;42.630;23.380;2023-07-29T10:03:49;33.00;37.10
80701;DHT22;71609;42.630;23.380;2023-07-29T10:06:15;32.90;36.80
80701;DHT22;71609;42.630;23.380;2023-07-29T10:08:43;33.00;36.90
80701;DHT22;71609;42.630;23.380;2023-07-29T10:11:10;33.00;37.00
80701;DHT22;71609;42.630;23.380;2023-07-29T10:13:37;33.00;36.90
80701;DHT22;71609;42.630;23.380;2023-07-29T10:16:03;33.00;37.20
80701;DHT22;71609;42.630;23.380;2023-07-29T10:18:30;32.90;37.10
80701;DHT22;71609;42.630;23.380;2023-07-29T10:20:58;32.90;37.00
80701;DHT22;71609;42.630;23.380;2023-07-29T10:23:25;32.90;37.00
80701;DHT22;71609;42.630;23.380;2023-07-29T10:26:10;32.90;36.90
80701;DHT22;71609;42.630;23.380;2023-07-29T10:28:40;32.90;37.20
80701;DHT22;71609;42.630;23.380;2023-07-29T10:31:06;32.90;37.30
80701;DHT22;71609;42.630;23.380;2023-07-29T10:33:34;32.80;37.10
80701;DHT22;71609;42.630;23.380;2023-07-29T10:36:00;32.80;37.20
80701;DHT22;71609;42.630;23.380;2023-07-29T10:38:26;32.80;37.60
80701;DHT22;71609;42.630;23.380;2023-07-29T10:40:56;32.70;37.20
80701;DHT22;71609;42.630;23.380;2023-07-29T10:43:35;32.70;37.50
80701;DHT22;71609;42.630;23.380;2023-07-29T10:48:55;32.70;37.80
80701;DHT22;71609;42.630;23.380;2023-07-29T10:51:35;32.70;38.00
80701;DHT22;71609;42.630;23.380;2023-07-29T10:54:11;32.60;38.00
80701;DHT22;71609;42.630;23.380;2023-07-29T10:56:40;32.60;37.90
80701;DHT22;71609;42.630;23.380;2023-07-29T11:01:42;32.50;38.30
80701;DHT22;71609;42.630;23.380;2023-07-29T11:07:19;32.40;38.00
80701;DHT22;71609;42.630;23.380;2023-07-29T11:12:45;32.30;38.10
80701;DHT22;71609;42.630;23.380;2023-07-29T11:20:08;32.20;38.40
80701;DHT22;71609;42.630;23.380;2023-07-29T11:22:34;32.20;38.50
80701;DHT22;71609;42.630;23.380;2023-07-29T11:25:00;32.10;38.50
80701;DHT22;71609;42.630;23.380;2023-07-29T11:27:26;32.10;38.70
80701;DHT22;71609;42.630;23.380;2023-07-29T11:29:57;32.00;39.00
80701;DHT22;71609;42.630;23.380;2023-07-29T11:32:24;32.10;39.20
80701;DHT22;71609;42.630;23.380;2023-07-29T11:34:50;32.00;39.40
80701;DHT22;71609;42.630;23.380;2023-07-29T11:37:17;32.00;39.20
80701;DHT22;71609;42.630;23.380;2023-07-29T11:39:46;32.00;39.30
80701;DHT22;71609;42.630;23.380;2023-07-29T11:42:12;31.90;38.70
80701;DHT22;71609;42.630;23.380;2023-07-29T11:44:38;31.90;38.60
80701;DHT22;71609;42.630;23.380;2023-07-29T11:47:08;31.90;40.00
80701;DHT22;71609;42.630;23.380;2023-07-29T11:49:34;31.90;39.20
80701;DHT22;71609;42.630;23.380;2023-07-29T11:52:00;31.80;38.90
80701;DHT22;71609;42.630;23.380;2023-07-29T11:54:26;31.80;38.90
80701;DHT22;71609;42.630;23.380;2023-07-29T11:56:52;31.80;38.70
80701;DHT22;71609;42.630;23.380;2023-07-29T11:59:18;31.80;38.70
80701;DHT22;71609;42.630;23.380;2023-07-29T12:01:45;31.80;38.50
80701;DHT22;71609;42.630;23.380;2023-07-29T12:04:11;31.80;38.60
80701;DHT22;71609;42.630;23.380;2023-07-29T12:06:37;31.70;38.60
80701;DHT22;71609;42.630;23.380;2023-07-29T12:09:03;31.70;39.10
80701;DHT22;71609;42.630;23.380;2023-07-29T12:11:29;31.70;39.30
80701;DHT22;71609;42.630;23.380;2023-07-29T12:13:55;31.70;39.40
80701;DHT22;71609;42.630;23.380;2023-07-29T12:16:21;31.70;39.60
80701;DHT22;71609;42.630;23.380;2023-07-29T12:18:47;31.70;39.90
80701;DHT22;71609;42.630;23.380;2023-07-29T12:21:14;31.60;40.00
80701;DHT22;71609;42.630;23.380;2023-07-29T12:23:40;31.60;40.10
80701;DHT22;71609;42.630;23.380;2023-07-29T12:26:06;31.60;40.20
80701;DHT22;71609;42.630;23.380;2023-07-29T12:28:31;31.60;40.30
80701;DHT22;71609;42.630;23.380;2023-07-29T12:30:58;31.60;40.30
80701;DHT22;71609;42.630;23.380;2023-07-29T12:33:31;31.50;40.00
80701;DHT22;71609;42.630;23.380;2023-07-29T12:35:57;31.60;39.70
80701;DHT22;71609;42.630;23.380;2023-07-29T12:38:22;31.50;39.80
80701;DHT22;71609;42.630;23.380;2023-07-29T12:40:48;31.60;40.00
80701;DHT22;71609;42.630;23.380;2023-07-29T12:43:14;31.50;39.80
80701;DHT22;71609;42.630;23.380;2023-07-29T12:45:39;31.50;39.60
80701;DHT22;71609;42.630;23.380;2023-07-29T12:48:07;31.50;39.50
80701;DHT22;71609;42.630;23.380;2023-07-29T12:50:32;31.50;39.60
80701;DHT22;71609;42.630;23.380;2023-07-29T12:52:58;31.60;39.50
80701;DHT22;71609;42.630;23.380;2023-07-29T12:55:24;31.50;39.10
80701;DHT22;71609;42.630;23.380;2023-07-29T12:57:50;31.50;39.80
80701;DHT22;71609;42.630;23.380;2023-07-29T13:00:15;31.50;39.00
80701;DHT22;71609;42.630;23.380;2023-07-29T13:02:41;31.50;39.10
80701;DHT22;71609;42.630;23.380;2023-07-29T13:05:09;31.50;39.20
80701;DHT22;71609;42.630;23.380;2023-07-29T13:07:37;31.50;39.40
80701;DHT22;71609;42.630;23.380;2023-07-29T13:10:03;31.50;39.50
80701;DHT22;71609;42.630;23.380;2023-07-29T13:12:29;31.50;39.80
80701;DHT22;71609;42.630;23.380;2023-07-29T13:14:54;31.50;39.80
80701;DHT22;71609;42.630;23.380;2023-07-29T13:17:22;31.40;39.50
80701;DHT22;71609;42.630;23.380;2023-07-29T13:19:47;31.40;39.30
80701;DHT22;71609;42.630;23.380;2023-07-29T13:22:13;31.40;39.60
80701;DHT22;71609;42.630;23.380;2023-07-29T13:24:39;31.40;40.00
80701;DHT22;71609;42.630;23.380;2023-07-29T13:27:05;31.40;39.90
80701;DHT22;71609;42.630;23.380;2023-07-29T13:29:30;31.40;39.50
80701;DHT22;71609;42.630;23.380;2023-07-29T13:31:56;31.40;39.40
80701;DHT22;71609;42.630;23.380;2023-07-29T13:34:21;31.40;39.80
80701;DHT22;71609;42.630;23.380;2023-07-29T13:36:47;31.30;39.60
80701;DHT22;71609;42.630;23.380;2023-07-29T13:39:13;31.30;40.00
80701;DHT22;71609;42.630;23.380;2023-07-29T13:41:39;31.30;40.00
80701;DHT22;71609;42.630;23.380;2023-07-29T13:44:04;31.30;39.80
80701;DHT22;71609;42.630;23.380;2023-07-29T13:46:30;31.30;40.00
80701;DHT22;71609;42.630;23.380;2023-07-29T13:48:55;31.30;40.00
80701;DHT22;71609;42.630;23.380;2023-07-29T13:51:21;31.30;40.20
80701;DHT22;71609;42.630;23.380;2023-07-29T13:53:47;31.30;40.40
80701;DHT22;71609;42.630;23.380;2023-07-29T13:56:12;31.30;40.40
80701;DHT22;71609;42.630;23.380;2023-07-29T13:58:38;31.30;40.70
80701;DHT22;71609;42.630;23.380;2023-07-29T14:01:04;31.20;40.50
80701;DHT22;71609;42.630;23.380;2023-07-29T14:03:29;31.30;40.40
80701;DHT22;71609;42.630;23.380;2023-07-29T14:05:55;31.20;40.20
80701;DHT22;71609;42.630;23.380;2023-07-29T14:08:20;31.20;40.60
80701;DHT22;71609;42.630;23.380;2023-07-29T14:10:51;31.20;40.50
80701;DHT22;71609;42.630;23.380;2023-07-29T14:13:17;31.20;40.40
80701;DHT22;71609;42.630;23.380;2023-07-29T14:15:42;31.20;40.40
80701;DHT22;71609;42.630;23.380;2023-07-29T14:18:08;31.20;40.70
80701;DHT22;71609;42.630;23.380;2023-07-29T14:20:34;31.10;40.70
80701;DHT22;71609;42.630;23.380;2023-07-29T14:22:59;31.20;40.80
80701;DHT22;71609;42.630;23.380;2023-07-29T14:25:25;31.10;40.70
80701;DHT22;71609;42.630;23.380;2023-07-29T14:27:51;31.10;40.50
80701;DHT22;71609;42.630;23.380;2023-07-29T14:30:16;31.10;40.60
80701;DHT22;71609;42.630;23.380;2023-07-29T14:32:42;31.10;40.60
80701;DHT22;71609;42.630;23.380;2023-07-29T14:35:08;31.00;40.50
80701;DHT22;71609;42.630;23.380;2023-07-29T14:37:34;31.00;40.70
80701;DHT22;71609;42.630;23.380;2023-07-29T14:40:01;31.00;40.70
80701;DHT22;71609;42.630;23.380;2023-07-29T14:42:27;31.00;40.80
80701;DHT22;71609;42.630;23.380;2023-07-29T14:44:53;31.00;41.10
80701;DHT22;71609;42.630;23.380;2023-07-29T14:47:19;31.00;41.10
80701;DHT22;71609;42.630;23.380;2023-07-29T14:49:45;31.00;41.00
80701;DHT22;71609;42.630;23.380;2023-07-29T14:52:11;30.90;40.70
80701;DHT22;71609;42.630;23.380;2023-07-29T14:54:36;30.90;40.80
80701;DHT22;71609;42.630;23.380;2023-07-29T14:57:04;30.90;40.90
80701;DHT22;71609;42.630;23.380;2023-07-29T14:59:30;30.90;40.90
80701;DHT22;71609;42.630;23.380;2023-07-29T15:01:56;30.90;41.10
80701;DHT22;71609;42.630;23.380;2023-07-29T15:04:21;30.90;41.20
80701;DHT22;71609;42.630;23.380;2023-07-29T15:06:47;30.90;41.20
80701;DHT22;71609;42.630;23.380;2023-07-29T15:09:13;30.90;41.00
80701;DHT22;71609;42.630;23.380;2023-07-29T15:11:38;30.90;41.00
80701;DHT22;71609;42.630;23.380;2023-07-29T15:14:04;30.90;40.80
80701;DHT22;71609;42.630;23.380;2023-07-29T15:16:30;30.90;40.70
80701;DHT22;71609;42.630;23.380;2023-07-29T15:18:55;30.80;40.50
80701;DHT22;71609;42.630;23.380;2023-07-29T15:21:21;30.80;40.50
80701;DHT22;71609;42.630;23.380;2023-07-29T15:23:47;30.80;40.60
80701;DHT22;71609;42.630;23.380;2023-07-29T15:26:13;30.80;40.90
80701;DHT22;71609;42.630;23.380;2023-07-29T15:28:38;30.80;41.10
80701;DHT22;71609;42.630;23.380;2023-07-29T15:31:04;30.80;41.00
80701;DHT22;71609;42.630;23.380;2023-07-29T15:33:30;30.80;40.90